Tyaskin, Maryland
Current Conditions -  °F | °C
As of 4:57 AM on Saturday 25 Oct 2014 (Local Time) from KCGE Reporting Station
Clear Clear  
Wind Chill: 55°   Ceiling: Unl
Heat Index: 55°   Visibility: 10mi
Dew Point: 43°   Wind: 5mph
Humidity: 63%   Direction: 330°NNW
Pressure: 29.93"   Gusts: NA
Location:  38.32°N, 75.87°W
Report Text: KCGE 250857Z AUTO 33004KT 10SM CLR 13/06 A2993 RMK AO1
Loading
Personal Weather Stations






























Interactive Weather Map
Tropical Storm Tracking
New forecast layout! Learn more

10-Day Weather Forecast

Advertisements
Track Severe Weather on mobile